Time;durP1;ratioP1;P1;durP2;ratioP2;P2;SDS_P1;SDS_P2;PMS_P1;PMS_P2;Temp;Humidity;BMP_temperature;BMP_pressure;BME280_temperature;BME280_humidity;BME280_pressure;Samples;Min_cycle;Max_cycle;Signal;HPM_P1;HPM_P2
2022/06/08 00:00:36;;;;;;;6.10;4.53;;;12.30;99.90;;;;;;8366125;28;20264;-66
2022/06/08 00:04:37;;;;;;;5.73;5.07;;;12.30;99.90;;;;;;8360663;28;20315;-67
2022/06/08 00:08:38;;;;;;;6.80;4.87;;;12.30;99.90;;;;;;8365011;28;20349;-67
2022/06/08 00:12:39;;;;;;;5.50;4.90;;;12.30;99.90;;;;;;8364350;28;20207;-66
2022/06/08 00:16:40;;;;;;;6.47;5.20;;;12.40;99.90;;;;;;8366553;28;20183;-67
2022/06/08 00:20:41;;;;;;;5.20;4.80;;;12.40;99.90;;;;;;8360469;28;20280;-66
2022/06/08 00:24:42;;;;;;;4.70;4.30;;;12.50;99.90;;;;;;8363091;28;20208;-67
2022/06/08 00:28:43;;;;;;;4.97;4.53;;;12.50;99.90;;;;;;8371500;28;20217;-67
2022/06/08 00:32:44;;;;;;;5.03;4.40;;;12.50;99.90;;;;;;8372085;28;20228;-67
2022/06/08 00:36:45;;;;;;;5.93;5.03;;;12.50;99.90;;;;;;8371896;28;20185;-68
2022/06/08 00:40:57;;;;;;;6.00;4.63;;;12.50;99.90;;;;;;8374005;28;20186;-67
2022/06/08 00:45:04;;;;;;;5.00;4.20;;;12.50;99.90;;;;;;8380101;28;20214;-68
2022/06/08 00:49:30;;;;;;;5.20;4.70;;;12.50;99.90;;;;;;8372129;28;20221;-67
2022/06/08 00:53:45;;;;;;;4.43;4.03;;;12.50;99.90;;;;;;8366768;28;20238;-68
2022/06/08 00:58:15;;;;;;;5.17;4.40;;;12.60;99.90;;;;;;8367751;28;20196;-68
2022/06/08 01:02:16;;;;;;;9.70;4.93;;;12.60;99.90;;;;;;8369713;28;20209;-69
2022/06/08 01:06:22;;;;;;;6.53;4.37;;;12.70;99.90;;;;;;8373536;28;20235;-69
2022/06/08 01:10:27;;;;;;;6.70;4.93;;;12.70;99.90;;;;;;8373275;28;20185;-67
2022/06/08 01:14:28;;;;;;;5.43;4.80;;;12.80;99.90;;;;;;8369233;28;20375;-68
2022/06/08 01:18:30;;;;;;;4.60;4.20;;;12.70;99.90;;;;;;8370045;28;20185;-70
2022/06/08 01:22:31;;;;;;;4.33;3.93;;;12.70;99.90;;;;;;8370839;28;20278;-68
2022/06/08 01:26:48;;;;;;;6.23;4.27;;;12.60;99.90;;;;;;8367714;28;20196;-67
2022/06/08 01:31:04;;;;;;;5.50;4.20;;;12.60;99.90;;;;;;8364666;28;20182;-68
2022/06/08 01:35:16;;;;;;;4.43;4.03;;;12.60;99.90;;;;;;8367562;28;20212;-67
2022/06/08 01:39:40;;;;;;;4.63;4.23;;;12.60;99.90;;;;;;8373069;28;20272;-67
2022/06/08 01:43:53;;;;;;;3.97;3.57;;;12.50;99.90;;;;;;8372530;28;20219;-68
2022/06/08 01:48:10;;;;;;;4.47;3.90;;;12.40;99.90;;;;;;8373317;28;20446;-68
2022/06/08 01:52:44;;;;;;;4.40;3.93;;;12.40;99.90;;;;;;8367732;28;20209;-68
2022/06/08 01:56:45;;;;;;;3.80;3.50;;;12.30;99.90;;;;;;8378064;28;20189;-67
2022/06/08 02:01:05;;;;;;;4.63;4.03;;;12.30;99.90;;;;;;8373263;28;20302;-68
2022/06/08 02:05:24;;;;;;;4.87;3.67;;;12.20;99.90;;;;;;8370866;28;20180;-67
2022/06/08 02:09:54;;;;;;;5.33;4.00;;;12.20;99.90;;;;;;8364407;28;20468;-68
2022/06/08 02:14:03;;;;;;;6.23;3.87;;;12.10;99.90;;;;;;8358061;28;20255;-68
2022/06/08 02:18:13;;;;;;;5.40;3.80;;;12.10;99.90;;;;;;8373149;28;20191;-68
2022/06/08 02:22:16;;;;;;;4.93;3.80;;;12.10;99.90;;;;;;8372133;28;20215;-68
2022/06/08 02:26:32;;;;;;;3.67;3.37;;;12.00;99.90;;;;;;8370744;28;20205;-68
2022/06/08 02:30:40;;;;;;;4.20;3.80;;;12.00;99.90;;;;;;8364233;28;20283;-67
2022/06/08 02:34:42;;;;;;;4.73;4.27;;;12.00;99.90;;;;;;8372067;28;20216;-67
2022/06/08 02:38:50;;;;;;;4.27;3.70;;;11.90;99.90;;;;;;8371598;28;20329;-68
2022/06/08 02:42:55;;;;;;;4.97;4.47;;;11.90;99.90;;;;;;8368206;28;20194;-68
2022/06/08 02:47:08;;;;;;;5.43;4.67;;;11.90;99.90;;;;;;8372994;28;20235;-68
2022/06/08 02:51:09;;;;;;;7.37;5.10;;;11.90;99.90;;;;;;8361445;28;20187;-67
2022/06/08 02:55:30;;;;;;;7.43;5.63;;;11.80;99.90;;;;;;8362358;28;20244;-68
2022/06/08 02:59:37;;;;;;;9.17;6.03;;;11.90;99.90;;;;;;8369934;28;20273;-69
2022/06/08 03:04:00;;;;;;;8.07;5.47;;;11.90;99.90;;;;;;8372664;28;20211;-69
2022/06/08 03:08:08;;;;;;;7.17;5.37;;;12.00;99.90;;;;;;8371177;28;20211;-70
2022/06/08 03:12:16;;;;;;;5.70;4.50;;;12.00;99.90;;;;;;8373554;28;20253;-69
2022/06/08 03:16:33;;;;;;;9.27;4.93;;;12.00;99.90;;;;;;8369832;28;20265;-69
2022/06/08 03:20:35;;;;;;;5.10;4.60;;;12.10;99.90;;;;;;8370024;28;20180;-70
2022/06/08 03:24:36;;;;;;;5.70;5.13;;;12.30;99.90;;;;;;8361215;28;20193;-70
2022/06/08 03:28:37;;;;;;;13.20;10.57;;;12.50;99.90;;;;;;8372203;28;20209;-71
2022/06/08 03:32:38;;;;;;;14.13;11.13;;;12.90;99.90;;;;;;8382590;28;20209;-70
2022/06/08 03:36:39;;;;;;;12.53;9.63;;;13.60;99.90;;;;;;8381382;28;20192;-71
2022/06/08 03:40:40;;;;;;;11.10;9.20;;;13.90;99.90;;;;;;8378040;28;20215;-70
2022/06/08 03:44:41;;;;;;;10.53;9.53;;;13.90;99.90;;;;;;8381855;28;20189;-69
2022/06/08 03:48:44;;;;;;;7.23;6.60;;;13.90;99.90;;;;;;8367835;28;20272;-70
2022/06/08 03:52:52;;;;;;;5.70;5.20;;;13.90;99.90;;;;;;8364822;28;20201;-71
2022/06/08 03:56:56;;;;;;;4.97;3.93;;;14.00;99.90;;;;;;8361493;28;20193;-69
2022/06/08 04:00:57;;;;;;;4.33;3.53;;;14.10;99.90;;;;;;8364929;28;20231;-70
2022/06/08 04:04:58;;;;;;;3.53;3.23;;;14.40;99.90;;;;;;8368054;28;20188;-73
2022/06/08 04:08:59;;;;;;;3.93;3.40;;;15.00;99.90;;;;;;8369511;28;20242;-70
2022/06/08 04:13:00;;;;;;;7.50;4.63;;;16.50;99.90;;;;;;8373205;28;20210;-71
2022/06/08 04:17:01;;;;;;;6.93;3.93;;;18.40;99.90;;;;;;8365127;28;20176;-71
2022/06/08 04:21:06;;;;;;;4.20;3.43;;;20.20;99.90;;;;;;8371366;28;20317;-70
2022/06/08 04:25:08;;;;;;;3.70;2.60;;;21.50;99.90;;;;;;8366214;28;20203;-71
2022/06/08 04:29:09;;;;;;;3.10;2.00;;;22.00;1.00;;;;;;8371641;28;20201;-71
2022/06/08 04:33:13;;;;;;;1.90;1.80;;;22.10;1.00;;;;;;8372311;28;20240;-70
2022/06/08 04:37:14;;;;;;;2.80;2.03;;;21.70;1.00;;;;;;8363928;28;20178;-70
2022/06/08 04:41:16;;;;;;;3.17;1.50;;;21.90;1.00;;;;;;8363932;28;20231;-71
2022/06/08 04:45:17;;;;;;;3.40;2.10;;;22.30;1.00;;;;;;8367434;28;20185;-70
2022/06/08 04:49:18;;;;;;;1.90;1.53;;;22.10;1.00;;;;;;8366158;28;20264;-70
2022/06/08 04:53:19;;;;;;;3.00;1.80;;;21.90;1.00;;;;;;8363458;28;20198;-69
2022/06/08 04:57:20;;;;;;;2.53;1.67;;;22.10;1.00;;;;;;8366523;28;20182;-71
2022/06/08 05:01:21;;;;;;;2.17;1.90;;;21.70;1.00;;;;;;8364199;28;20213;-69
2022/06/08 05:05:34;;;;;;;6.83;2.40;;;21.40;1.00;;;;;;8370997;28;20272;-70
2022/06/08 05:09:36;;;;;;;3.13;1.97;;;20.90;58.80;;;;;;8363043;28;20233;-71
2022/06/08 05:13:37;;;;;;;2.43;2.07;;;20.20;99.90;;;;;;8372102;28;20240;-70
2022/06/08 05:17:38;;;;;;;2.57;1.93;;;19.40;1.00;;;;;;8366436;28;20177;-70
2022/06/08 05:21:40;;;;;;;4.47;2.20;;;19.20;75.20;;;;;;8364262;28;20182;-69
2022/06/08 05:25:42;;;;;;;3.53;1.87;;;19.10;99.90;;;;;;8371035;28;20223;-69
2022/06/08 05:29:42;;;;;;;2.23;2.03;;;19.20;99.90;;;;;;8376963;28;20276;-68
2022/06/08 05:33:43;;;;;;;2.70;1.93;;;19.40;99.90;;;;;;8381258;28;20217;-72
2022/06/08 05:37:44;;;;;;;4.50;2.40;;;19.50;36.70;;;;;;8369566;28;20576;-67
2022/06/08 05:41:45;;;;;;;3.17;2.30;;;19.50;27.10;;;;;;8368581;28;20185;-68
2022/06/08 05:45:46;;;;;;;3.30;2.27;;;19.60;99.90;;;;;;8376277;28;20181;-69
2022/06/08 05:49:47;;;;;;;2.93;2.53;;;19.80;99.90;;;;;;8369772;28;20181;-68
2022/06/08 05:53:48;;;;;;;2.57;2.20;;;19.90;98.20;;;;;;8369427;28;20210;-71
2022/06/08 05:57:51;;;;;;;2.40;2.10;;;20.00;21.40;;;;;;8368490;28;20185;-70
2022/06/08 06:01:52;;;;;;;2.40;1.97;;;20.00;42.40;;;;;;8370514;28;20212;-68
2022/06/08 06:05:53;;;;;;;3.73;2.43;;;20.00;33.00;;;;;;8370910;28;20177;-70
2022/06/08 06:09:54;;;;;;;3.00;2.67;;;20.00;88.60;;;;;;8367882;28;20363;-70
2022/06/08 06:13:56;;;;;;;2.37;2.10;;;20.10;60.70;;;;;;8371187;28;20206;-70
2022/06/08 06:17:57;;;;;;;2.87;2.23;;;20.10;99.90;;;;;;8371441;28;20180;-71
2022/06/08 06:21:58;;;;;;;3.63;2.37;;;20.10;99.90;;;;;;8366962;28;20177;-70
2022/06/08 06:25:58;;;;;;;3.43;2.60;;;20.10;99.90;;;;;;8370408;28;20260;-69
2022/06/08 06:29:59;;;;;;;5.20;2.50;;;20.20;99.90;;;;;;8371387;28;20216;-66
2022/06/08 06:34:00;;;;;;;2.43;2.20;;;20.40;99.90;;;;;;8369909;28;20205;-68
2022/06/08 06:38:01;;;;;;;2.30;2.10;;;20.70;1.00;;;;;;8362481;28;20174;-69
2022/06/08 06:42:02;;;;;;;4.40;2.70;;;21.00;1.00;;;;;;8370022;28;20173;-71
2022/06/08 06:46:03;;;;;;;7.97;2.60;;;21.40;99.90;;;;;;8371672;28;20204;-69
2022/06/08 06:50:05;;;;;;;4.60;2.20;;;21.60;99.90;;;;;;8370932;28;20181;-69
2022/06/08 06:54:08;;;;;;;6.07;2.03;;;21.80;99.90;;;;;;8361201;28;20566;-70
2022/06/08 06:58:08;;;;;;;3.23;1.73;;;22.30;99.90;;;;;;8361618;28;20189;-67
2022/06/08 07:02:15;;;;;;;2.33;1.77;;;22.80;99.90;;;;;;8369033;28;20204;-66
2022/06/08 07:06:16;;;;;;;2.23;1.53;;;23.10;10.50;;;;;;8369913;28;20186;-70
2022/06/08 07:10:18;;;;;;;3.00;1.80;;;23.60;1.00;;;;;;8366660;28;20186;-68
2022/06/08 07:14:19;;;;;;;2.33;1.93;;;24.00;99.90;;;;;;8367798;28;20348;-72
2022/06/08 07:18:20;;;;;;;2.87;1.90;;;24.50;99.90;;;;;;8366119;28;20264;-66
2022/06/08 07:22:21;;;;;;;3.87;1.70;;;24.60;99.90;;;;;;8364457;28;20188;-69
2022/06/08 07:26:24;;;;;;;1.60;1.27;;;25.00;99.90;;;;;;8370286;28;20190;-69
2022/06/08 07:30:25;;;;;;;2.92;1.95;;;25.40;99.90;;;;;;8363424;28;20192;-69
2022/06/08 07:34:26;;;;;;;4.80;1.63;;;25.80;99.90;;;;;;8372922;28;20232;-68
2022/06/08 07:38:27;;;;;;;1.35;0.95;;;26.00;99.90;;;;;;8365471;28;20182;-69
2022/06/08 07:42:28;;;;;;;1.98;1.45;;;25.90;99.90;;;;;;8361657;28;20190;-66
2022/06/08 07:46:29;;;;;;;1.65;1.35;;;25.70;99.90;;;;;;8367485;28;20242;-67
2022/06/08 07:50:30;;;;;;;2.83;1.27;;;25.90;99.90;;;;;;8367607;28;20205;-67
2022/06/08 07:54:32;;;;;;;2.70;2.00;;;26.00;99.90;;;;;;8368240;28;20204;-66
2022/06/08 07:58:32;;;;;;;3.40;1.60;;;25.90;99.90;;;;;;8373355;28;20178;-66
2022/06/08 08:02:34;;;;;;;1.45;1.33;;;25.50;99.90;;;;;;8365161;28;20201;-68
2022/06/08 08:06:35;;;;;;;2.08;1.50;;;25.00;99.90;;;;;;8364594;28;20264;-67
2022/06/08 08:10:35;;;;;;;2.65;1.60;;;24.70;99.90;;;;;;8366792;28;20473;-66
2022/06/08 08:14:37;;;;;;;2.50;1.67;;;24.70;99.90;;;;;;8362432;28;20216;-66
2022/06/08 08:18:38;;;;;;;4.03;1.80;;;24.50;99.90;;;;;;8371909;28;20201;-66
2022/06/08 08:22:39;;;;;;;3.00;1.83;;;24.20;99.90;;;;;;8372539;28;20185;-66
2022/06/08 08:26:42;;;;;;;3.50;1.73;;;24.00;99.90;;;;;;8368227;28;20193;-69
2022/06/08 08:30:42;;;;;;;2.60;1.80;;;23.90;99.90;;;;;;8361799;28;20210;-66
2022/06/08 08:34:43;;;;;;;2.27;1.60;;;23.90;99.90;;;;;;8365519;28;20288;-71
2022/06/08 08:38:45;;;;;;;3.37;1.73;;;24.10;99.90;;;;;;8364213;28;20545;-66
2022/06/08 08:42:46;;;;;;;3.30;1.57;;;24.50;99.90;;;;;;8370669;28;20309;-70
2022/06/08 08:47:02;;;;;;;2.27;1.50;;;25.00;99.90;;;;;;8359951;28;20181;-66
2022/06/08 08:51:19;;;;;;;1.48;1.38;;;25.20;99.90;;;;;;8361561;28;20186;-72
2022/06/08 08:55:49;;;;;;;3.45;1.83;;;25.60;99.90;;;;;;8360392;28;20202;-69
2022/06/08 08:59:50;;;;;;;5.78;1.95;;;25.80;99.90;;;;;;8363585;28;20205;-67
2022/06/08 09:03:59;;;;;;;2.20;0.70;;;25.90;99.90;;;;;;8371042;28;20197;-70
2022/06/08 09:08:00;;;;;;;2.20;0.60;;;25.70;22.60;;;;;;8371817;28;20181;-72
2022/06/08 09:12:01;;;;;;;1.40;0.90;;;25.60;1.00;;;;;;8370022;28;20209;-68
2022/06/08 09:16:03;;;;;;;1.27;0.93;;;25.50;21.80;;;;;;8366263;28;20185;-68
2022/06/08 09:20:24;;;;;;;2.15;0.90;;;25.40;76.90;;;;;;8365802;28;20181;-65
2022/06/08 09:24:34;;;;;;;2.97;1.20;;;25.20;49.90;;;;;;8363511;28;20219;-67
2022/06/08 09:28:36;;;;;;;3.47;1.00;;;25.00;39.10;;;;;;8364684;28;20563;-68
2022/06/08 09:32:44;;;;;;;1.27;1.03;;;25.20;90.10;;;;;;8368743;28;20198;-68
2022/06/08 09:37:01;;;;;;;1.77;0.83;;;25.40;99.90;;;;;;8370813;28;20213;-69
2022/06/08 09:41:28;;;;;;;1.43;1.03;;;25.50;47.50;;;;;;8366873;28;20180;-67
2022/06/08 09:45:34;;;;;;;0.97;0.80;;;25.50;64.90;;;;;;8369684;28;20192;-68
2022/06/08 09:54:29;;;;;;;1.50;0.70;;;25.40;70.50;;;;;;8374750;28;20504;-67
2022/06/08 09:58:33;;;;;;;4.32;1.10;;;25.50;30.40;;;;;;8372972;28;20174;-66
2022/06/08 10:02:55;;;;;;;1.88;0.90;;;25.60;37.80;;;;;;8373254;28;20216;-66
2022/06/08 10:06:58;;;;;;;1.73;0.80;;;25.70;22.80;;;;;;8367589;28;20198;-66
2022/06/08 10:15:52;;;;;;;1.70;0.57;;;25.80;1.00;;;;;;8364027;28;20304;-69
2022/06/08 10:20:04;;;;;;;0.75;0.57;;;25.90;11.10;;;;;;8367876;28;20177;-68
2022/06/08 10:24:29;;;;;;;2.67;0.82;;;26.00;1.00;;;;;;8368623;28;20296;-68
2022/06/08 10:28:47;;;;;;;1.08;0.73;;;26.10;1.00;;;;;;8372400;28;20308;-66
2022/06/08 10:32:59;;;;;;;1.30;0.73;;;26.20;1.00;;;;;;8361933;28;20212;-70
2022/06/08 10:37:31;;;;;;;0.90;0.60;;;26.20;1.00;;;;;;8368899;28;20182;-69
2022/06/08 10:46:04;;;;;;;3.05;0.50;;;26.40;1.00;;;;;;8367341;28;20216;-69
2022/06/08 10:50:05;;;;;;;1.42;0.82;;;26.30;1.00;;;;;;8368245;28;20224;-68
2022/06/08 10:59:10;;;;;;;1.80;0.60;;;26.40;1.00;;;;;;8365845;28;20448;-67
2022/06/08 11:03:40;;;;;;;2.88;0.65;;;26.50;1.00;;;;;;8372373;28;20193;-64
2022/06/08 11:08:04;;;;;;;1.80;0.60;;;26.60;1.00;;;;;;8372370;28;20236;-71
2022/06/08 11:12:11;;;;;;;0.93;0.50;;;26.70;1.00;;;;;;8372238;28;20186;-71
2022/06/08 11:16:25;;;;;;;0.82;0.40;;;26.90;1.00;;;;;;8370040;28;20447;-69
2022/06/08 11:20:34;;;;;;;1.10;0.50;;;26.90;1.00;;;;;;8372378;28;20178;-68
2022/06/08 11:24:39;;;;;;;1.45;0.45;;;27.10;1.00;;;;;;8366166;28;20270;-67
2022/06/08 11:28:50;;;;;;;2.00;0.60;;;27.10;1.00;;;;;;8368097;28;20205;-71
2022/06/08 11:32:51;;;;;;;1.63;0.50;;;27.20;1.00;;;;;;8366829;28;20204;-66
2022/06/08 11:37:17;;;;;;;2.38;0.50;;;27.20;1.00;;;;;;8367569;28;20182;-72
2022/06/08 11:41:20;;;;;;;0.68;0.30;;;27.20;1.00;;;;;;8365091;28;20260;-72
2022/06/08 11:45:25;;;;;;;1.13;0.45;;;27.10;1.00;;;;;;8369442;28;20182;-66
2022/06/08 11:49:30;;;;;;;1.38;0.50;;;27.10;1.00;;;;;;8371195;28;20264;-67
2022/06/08 11:53:42;;;;;;;1.10;0.45;;;27.10;1.00;;;;;;8365161;28;20221;-71
2022/06/08 11:57:59;;;;;;;0.80;0.50;;;27.00;1.00;;;;;;8360089;28;20186;-67
2022/06/08 12:02:13;;;;;;;1.80;0.50;;;26.90;1.00;;;;;;8369051;28;20219;-71
2022/06/08 12:06:14;;;;;;;0.60;0.38;;;27.10;1.00;;;;;;8366152;28;20178;-68
2022/06/08 12:10:20;;;;;;;0.60;0.30;;;27.20;1.00;;;;;;8368555;28;20192;-66
2022/06/08 12:14:35;;;;;;;0.65;0.32;;;27.20;1.00;;;;;;8364051;28;20206;-70
2022/06/08 12:18:44;;;;;;;2.13;0.60;;;27.30;1.00;;;;;;8364747;28;20200;-68
2022/06/08 12:22:53;;;;;;;1.33;0.60;;;27.30;1.00;;;;;;8371048;28;20359;-70
2022/06/08 12:26:54;;;;;;;1.40;0.40;;;27.10;1.00;;;;;;8368932;28;20205;-72
2022/06/08 12:30:58;;;;;;;0.68;0.45;;;27.00;1.00;;;;;;8368890;28;20222;-69
2022/06/08 12:35:24;;;;;;;1.33;0.55;;;27.00;1.00;;;;;;8371008;28;20212;-71
2022/06/08 12:39:28;;;;;;;1.80;1.20;;;27.00;1.00;;;;;;8376688;28;20274;-71
2022/06/08 12:44:05;;;;;;;1.83;0.40;;;27.10;1.00;;;;;;8370627;28;20207;-69
2022/06/08 12:48:36;;;;;;;1.67;0.60;;;27.00;1.00;;;;;;8359019;28;20189;-70
2022/06/08 12:52:37;;;;;;;1.35;0.65;;;27.00;1.00;;;;;;8378044;28;20282;-69
2022/06/08 12:56:38;;;;;;;0.98;0.50;;;27.00;1.00;;;;;;8370536;28;20269;-73
2022/06/08 13:00:50;;;;;;;0.75;0.40;;;27.10;1.00;;;;;;8373672;28;20196;-70
2022/06/08 13:04:51;;;;;;;1.38;0.50;;;27.20;1.00;;;;;;8374438;28;20181;-66
2022/06/08 13:08:52;;;;;;;0.47;0.20;;;27.20;1.00;;;;;;8377915;28;20189;-68
2022/06/08 13:12:58;;;;;;;2.17;0.60;;;27.00;1.00;;;;;;8370384;28;20235;-69
2022/06/08 13:17:00;;;;;;;1.83;0.40;;;26.90;1.00;;;;;;8374347;28;20184;-67
2022/06/08 13:21:02;;;;;;;0.98;0.50;;;26.80;1.00;;;;;;8369135;28;20253;-68
2022/06/08 13:25:05;;;;;;;2.13;0.43;;;26.70;1.00;;;;;;8368467;28;20190;-68
2022/06/08 13:29:06;;;;;;;1.67;0.50;;;26.70;1.00;;;;;;8373807;28;20198;-68
2022/06/08 13:37:41;;;;;;;1.33;1.05;;;26.80;1.00;;;;;;8376647;28;20517;-68
2022/06/08 13:41:44;;;;;;;1.20;0.52;;;26.80;1.00;;;;;;8385582;28;20265;-69
2022/06/08 13:45:45;;;;;;;1.15;0.50;;;26.80;1.00;;;;;;8379039;28;20200;-70
2022/06/08 13:49:51;;;;;;;1.30;0.68;;;26.60;1.00;;;;;;8374937;28;20185;-65
2022/06/08 13:53:54;;;;;;;0.77;0.55;;;26.60;1.00;;;;;;8365980;28;20233;-70
2022/06/08 13:57:58;;;;;;;1.90;0.88;;;26.60;1.00;;;;;;8370047;28;20185;-68
2022/06/08 14:01:59;;;;;;;2.45;0.70;;;26.60;1.00;;;;;;8373080;28;20636;-70
2022/06/08 14:14:53;;;;;;;2.75;0.70;;;26.50;1.00;;;;;;8375467;28;20263;-68
2022/06/08 14:18:55;;;;;;;1.40;0.70;;;26.60;1.00;;;;;;8369200;28;20182;-69
2022/06/08 14:22:56;;;;;;;4.03;0.88;;;26.60;1.00;;;;;;8366601;28;20185;-70
2022/06/08 14:26:58;;;;;;;2.95;0.80;;;26.60;1.00;;;;;;8366829;28;20205;-70
2022/06/08 14:31:00;;;;;;;1.08;0.80;;;26.60;1.00;;;;;;8378309;28;20215;-71
2022/06/08 14:35:04;;;;;;;1.13;0.80;;;26.50;1.00;;;;;;8378024;28;20699;-70
2022/06/08 14:39:07;;;;;;;1.65;0.70;;;26.50;1.00;;;;;;8371952;28;20181;-67
2022/06/08 14:43:08;;;;;;;1.02;0.90;;;26.40;1.00;;;;;;8368839;28;20184;-72
2022/06/08 14:47:19;;;;;;;2.63;1.13;;;26.40;1.00;;;;;;8370481;28;20182;-70
2022/06/08 14:51:20;;;;;;;1.50;0.90;;;26.40;1.00;;;;;;8369651;28;20184;-70
2022/06/08 14:59:41;;;;;;;2.25;1.23;;;26.20;1.00;;;;;;8366543;28;20220;-66
2022/06/08 15:03:42;;;;;;;1.27;0.60;;;26.20;1.00;;;;;;8371138;28;20201;-65
2022/06/08 15:07:43;;;;;;;2.13;0.73;;;26.30;1.00;;;;;;8369056;28;20213;-68
2022/06/08 15:11:58;;;;;;;1.30;0.70;;;26.30;1.00;;;;;;8366369;28;20238;-68
2022/06/08 15:16:00;;;;;;;1.67;0.80;;;26.10;1.00;;;;;;8368423;28;20185;-65
2022/06/08 15:20:07;;;;;;;1.20;0.80;;;26.10;1.00;;;;;;8363710;28;20177;-70
2022/06/08 15:24:08;;;;;;;1.80;0.80;;;26.20;1.00;;;;;;8365929;28;20203;-68
2022/06/08 15:28:24;;;;;;;1.57;0.77;;;26.30;1.00;;;;;;8368457;28;20206;-67
2022/06/08 15:32:26;;;;;;;0.93;0.60;;;26.20;1.00;;;;;;8374574;28;20201;-65
2022/06/08 15:36:26;;;;;;;3.15;0.77;;;26.20;1.00;;;;;;8371178;28;20409;-65
2022/06/08 15:40:32;;;;;;;2.22;0.70;;;26.30;1.00;;;;;;8370194;28;20182;-65
2022/06/08 15:44:33;;;;;;;2.00;0.80;;;26.30;1.00;;;;;;8368935;28;20185;-67
2022/06/08 15:48:35;;;;;;;1.40;0.70;;;26.10;1.00;;;;;;8366664;28;20182;-67
2022/06/08 15:52:40;;;;;;;2.33;0.63;;;26.00;1.00;;;;;;8371623;28;20248;-66
2022/06/08 15:56:44;;;;;;;1.98;0.80;;;25.90;1.00;;;;;;8369336;28;20196;-69
2022/06/08 16:00:46;;;;;;;2.50;0.60;;;25.70;1.00;;;;;;8359057;28;20213;-66
2022/06/08 16:04:48;;;;;;;1.97;1.10;;;25.60;1.00;;;;;;8365404;28;20257;-66
2022/06/08 16:08:49;;;;;;;3.77;0.83;;;25.60;1.00;;;;;;8369925;28;20203;-67
2022/06/08 16:12:50;;;;;;;0.87;0.70;;;25.60;1.00;;;;;;8373012;28;20256;-66
2022/06/08 16:16:51;;;;;;;1.73;1.03;;;25.50;1.00;;;;;;8368092;28;20185;-67
2022/06/08 16:20:52;;;;;;;2.13;0.93;;;25.30;1.00;;;;;;8372912;28;20227;-68
2022/06/08 16:24:53;;;;;;;1.83;0.87;;;25.20;1.00;;;;;;8370518;28;20185;-66
2022/06/08 16:28:54;;;;;;;1.73;0.90;;;25.20;1.00;;;;;;8367502;28;20208;-69
2022/06/08 16:32:55;;;;;;;1.77;1.10;;;25.20;1.00;;;;;;8364896;28;20213;-67
2022/06/08 16:36:58;;;;;;;3.90;1.00;;;25.10;1.00;;;;;;8367172;28;20174;-72
2022/06/08 16:40:59;;;;;;;2.60;1.00;;;25.00;1.00;;;;;;8364707;28;20174;-67
2022/06/08 16:45:00;;;;;;;3.70;1.10;;;24.90;1.00;;;;;;8370064;28;20181;-65
2022/06/08 16:49:02;;;;;;;1.33;0.90;;;24.90;1.00;;;;;;8371287;28;20215;-67
2022/06/08 16:53:04;;;;;;;1.50;1.00;;;24.80;1.00;;;;;;8370276;28;20225;-71
2022/06/08 17:01:25;;;;;;;1.40;1.10;;;24.80;1.00;;;;;;8372890;28;20287;-68
2022/06/08 17:05:26;;;;;;;2.13;0.90;;;24.80;1.00;;;;;;8365520;28;20264;-69
2022/06/08 17:09:28;;;;;;;2.53;1.00;;;24.80;1.00;;;;;;8367395;28;20182;-69
2022/06/08 17:13:29;;;;;;;1.87;0.90;;;24.80;1.00;;;;;;8370783;28;20220;-67
2022/06/08 17:17:32;;;;;;;1.60;1.00;;;25.30;1.00;;;;;;8364279;28;20208;-67
2022/06/08 17:21:33;;;;;;;1.70;0.80;;;26.20;1.00;;;;;;8362700;28;20239;-70
2022/06/08 17:25:34;;;;;;;3.58;1.23;;;26.90;1.00;;;;;;8370449;28;20181;-68
2022/06/08 17:29:37;;;;;;;2.38;0.88;;;27.50;1.00;;;;;;8373817;28;20213;-66
2022/06/08 17:33:38;;;;;;;0.70;0.70;;;27.80;1.00;;;;;;8380472;28;20197;-66
2022/06/08 17:37:41;;;;;;;3.00;0.70;;;28.10;1.00;;;;;;8379001;28;20186;-66
2022/06/08 17:41:43;;;;;;;0.82;0.63;;;27.80;1.00;;;;;;8367556;28;20177;-67
2022/06/08 17:45:44;;;;;;;2.28;0.80;;;27.40;1.00;;;;;;8373510;28;20182;-68
2022/06/08 17:49:46;;;;;;;1.67;1.15;;;27.30;1.00;;;;;;8365397;28;20182;-68
2022/06/08 17:53:48;;;;;;;0.90;0.60;;;27.50;1.00;;;;;;8368302;28;20216;-66
2022/06/08 17:57:49;;;;;;;1.77;0.68;;;28.00;1.00;;;;;;8350404;28;20185;-67
2022/06/08 18:01:51;;;;;;;2.90;1.02;;;28.10;1.00;;;;;;8372411;28;20204;-67
2022/06/08 18:05:54;;;;;;;2.30;0.75;;;27.90;1.00;;;;;;8380111;28;20538;-66
2022/06/08 18:09:55;;;;;;;1.92;1.08;;;27.50;1.00;;;;;;8380132;28;20203;-66
2022/06/08 18:13:57;;;;;;;2.13;0.90;;;27.70;1.00;;;;;;8367761;28;20210;-67
2022/06/08 18:17:58;;;;;;;3.05;1.00;;;27.90;1.00;;;;;;8366183;28;20189;-68
2022/06/08 18:21:59;;;;;;;2.28;0.93;;;27.80;1.00;;;;;;8375139;28;20208;-68
2022/06/08 18:26:02;;;;;;;1.27;0.80;;;27.70;1.00;;;;;;8368140;28;20189;-65
2022/06/08 18:30:07;;;;;;;1.13;0.60;;;27.60;1.00;;;;;;8369270;28;20247;-66
2022/06/08 18:34:08;;;;;;;1.60;1.00;;;27.20;1.00;;;;;;8360419;28;20355;-67
2022/06/08 18:38:11;;;;;;;2.20;1.15;;;27.00;1.00;;;;;;8371986;28;20174;-66
2022/06/08 18:42:16;;;;;;;1.92;1.08;;;26.60;1.00;;;;;;8366260;28;20243;-66
2022/06/08 18:46:19;;;;;;;1.37;1.23;;;25.70;1.00;;;;;;8366341;28;20190;-65
2022/06/08 18:50:22;;;;;;;3.60;1.30;;;24.80;1.00;;;;;;8370393;28;20209;-65
2022/06/08 18:54:24;;;;;;;2.10;1.03;;;23.90;7.00;;;;;;8367504;28;20220;-65
2022/06/08 18:58:27;;;;;;;1.50;1.07;;;23.20;75.30;;;;;;8364886;28;20390;-66
2022/06/08 19:02:30;;;;;;;1.10;1.00;;;22.40;99.90;;;;;;8373807;28;20225;-65
2022/06/08 19:06:35;;;;;;;1.23;0.90;;;21.70;99.90;;;;;;8372121;28;20264;-65
2022/06/08 19:10:37;;;;;;;1.47;1.10;;;21.10;99.90;;;;;;8371615;28;20220;-68
2022/06/08 19:14:38;;;;;;;1.53;0.90;;;20.60;99.90;;;;;;8367413;28;20212;-67
2022/06/08 19:23:01;;;;;;;2.40;1.50;;;19.90;99.90;;;;;;8365861;28;20193;-68
2022/06/08 19:27:03;;;;;;;3.07;1.50;;;19.60;1.00;;;;;;8367425;28;20205;-67
2022/06/08 19:31:06;;;;;;;2.10;1.50;;;19.40;1.00;;;;;;8367418;28;20188;-66
2022/06/08 19:35:09;;;;;;;1.90;1.40;;;19.10;1.00;;;;;;8370804;28;20295;-67
2022/06/08 19:39:12;;;;;;;2.60;1.40;;;18.80;15.90;;;;;;8378286;28;20232;-66
2022/06/08 19:43:15;;;;;;;3.10;1.43;;;18.60;99.90;;;;;;8374364;28;20181;-66
2022/06/08 19:47:16;;;;;;;2.03;1.43;;;18.30;99.90;;;;;;8366424;28;20201;-65
2022/06/08 19:51:17;;;;;;;2.10;1.40;;;18.10;99.90;;;;;;8362987;28;20200;-67
2022/06/08 19:55:19;;;;;;;2.00;1.60;;;17.90;99.90;;;;;;8364754;28;20292;-66
2022/06/08 19:59:20;;;;;;;2.03;1.53;;;17.70;1.00;;;;;;8372709;28;20181;-67
2022/06/08 20:03:24;;;;;;;2.17;1.60;;;17.40;1.00;;;;;;8375279;28;20296;-65
2022/06/08 20:07:28;;;;;;;1.90;1.70;;;17.20;1.00;;;;;;8363639;28;20197;-66
2022/06/08 20:11:29;;;;;;;3.30;2.37;;;17.10;42.70;;;;;;8362066;28;20268;-66
2022/06/08 20:15:31;;;;;;;2.23;1.93;;;17.10;99.90;;;;;;8365947;28;20220;-66
2022/06/08 20:19:33;;;;;;;3.63;2.13;;;17.00;99.90;;;;;;8368025;28;20217;-66
2022/06/08 20:23:38;;;;;;;1.53;1.43;;;16.80;99.90;;;;;;8367585;28;20221;-67
2022/06/08 20:27:40;;;;;;;1.77;1.67;;;16.70;99.90;;;;;;8357733;28;20209;-67
2022/06/08 20:31:41;;;;;;;2.97;1.90;;;16.60;99.90;;;;;;8376138;28;20237;-65
2022/06/08 20:35:43;;;;;;;3.10;2.10;;;16.50;99.90;;;;;;8373171;28;20296;-67
2022/06/08 20:39:44;;;;;;;2.07;1.87;;;16.40;1.00;;;;;;8362883;28;20189;-68
2022/06/08 20:43:45;;;;;;;2.70;2.10;;;16.30;1.00;;;;;;8367786;28;20216;-67
2022/06/08 20:47:46;;;;;;;3.47;2.30;;;16.30;6.50;;;;;;8366796;28;20185;-65
2022/06/08 20:51:47;;;;;;;3.07;2.60;;;16.20;28.90;;;;;;8366549;28;20268;-66
2022/06/08 20:55:49;;;;;;;3.67;2.43;;;16.10;99.90;;;;;;8364358;28;20197;-64
2022/06/08 20:59:50;;;;;;;2.63;2.20;;;16.00;99.90;;;;;;8378670;28;20186;-68
2022/06/08 21:03:52;;;;;;;2.67;2.30;;;15.90;99.90;;;;;;8375102;28;20205;-68
2022/06/08 21:07:54;;;;;;;2.50;2.30;;;15.90;99.90;;;;;;8374705;28;20247;-67
2022/06/08 21:11:56;;;;;;;2.77;2.03;;;15.80;99.90;;;;;;8371631;28;20199;-67
2022/06/08 21:15:57;;;;;;;2.50;2.30;;;15.60;1.00;;;;;;8369181;28;20209;-68
2022/06/08 21:19:58;;;;;;;2.37;2.17;;;15.50;1.00;;;;;;8369424;28;20173;-67
2022/06/08 21:23:59;;;;;;;3.73;2.33;;;15.30;99.90;;;;;;8367896;28;20184;-69
2022/06/08 21:28:00;;;;;;;3.33;2.80;;;15.20;99.90;;;;;;8367031;28;20209;-68
2022/06/08 21:32:02;;;;;;;3.47;2.70;;;15.10;99.90;;;;;;8372323;28;20314;-68
2022/06/08 21:36:05;;;;;;;6.43;2.87;;;15.10;1.00;;;;;;8376148;28;20209;-68
2022/06/08 21:40:06;;;;;;;6.70;3.87;;;15.00;1.00;;;;;;8371185;28;20181;-68
2022/06/08 21:44:06;;;;;;;6.13;3.53;;;14.90;1.00;;;;;;8363243;28;20197;-71
2022/06/08 21:48:08;;;;;;;4.50;3.27;;;14.70;1.00;;;;;;8374523;28;20190;-69
2022/06/08 21:52:10;;;;;;;3.37;3.07;;;14.60;1.00;;;;;;8375546;28;20186;-68
2022/06/08 21:56:11;;;;;;;2.70;2.50;;;14.60;1.00;;;;;;8367979;28;20217;-66
2022/06/08 22:00:28;;;;;;;3.23;2.77;;;14.50;1.00;;;;;;8369929;28;20292;-67
2022/06/08 22:04:29;;;;;;;4.77;3.17;;;14.40;1.00;;;;;;8374957;28;20198;-67